createdAt,value
2018-11-01T00:01:03.120Z,100780.22
2018-11-01T00:03:36.616Z,100781.88
2018-11-01T00:06:12.373Z,100780.80
2018-11-01T00:08:44.750Z,100778.06
2018-11-01T00:11:13.731Z,100771.53
2018-11-01T00:13:42.658Z,100767.96
2018-11-01T00:16:30.823Z,100760.70
2018-11-01T00:22:10.314Z,100761.16
2018-11-01T00:24:44.160Z,100757.73
2018-11-01T00:27:16.278Z,100747.77
2018-11-01T00:29:48.676Z,100751.27
2018-11-01T00:35:10.474Z,100751.00
2018-11-01T00:37:40.538Z,100754.42
2018-11-01T00:40:12.510Z,100757.85
2018-11-01T00:42:55.040Z,100764.66
2018-11-01T00:45:24.926Z,100763.70
2018-11-01T00:47:54.780Z,100757.05
2018-11-01T00:50:37.343Z,100767.88
2018-11-01T00:53:12.622Z,100773.23
2018-11-01T00:55:51.772Z,100779.08
2018-11-01T00:58:26.073Z,100777.11
2018-11-01T01:00:56.027Z,100773.98
2018-11-01T01:03:28.252Z,100774.18
2018-11-01T01:06:01.247Z,100767.27
2018-11-01T01:08:32.550Z,100762.92
2018-11-01T01:11:20.342Z,100770.53
2018-11-01T01:13:50.264Z,100771.06
2018-11-01T01:16:19.209Z,100775.02
2018-11-01T01:18:51.999Z,100769.56
2018-11-01T01:21:24.858Z,100770.06
2018-11-01T01:23:55.835Z,100768.24
2018-11-01T01:26:28.154Z,100777.66
2018-11-01T01:29:02.199Z,100787.36
2018-11-01T01:31:31.174Z,100789.57
2018-11-01T01:34:00.028Z,100786.32
2018-11-01T01:36:32.587Z,100786.30
2018-11-01T01:39:01.438Z,100781.42
2018-11-01T01:41:36.104Z,100773.58
2018-11-01T01:44:05.680Z,100772.72
2018-11-01T01:46:42.746Z,100768.83
2018-11-01T01:49:16.976Z,100772.74
2018-11-01T01:51:49.002Z,100764.54
2018-11-01T01:54:18.983Z,100755.75
2018-11-01T01:57:00.287Z,100755.75
2018-11-01T01:59:35.233Z,100750.38
2018-11-01T02:02:04.437Z,100749.90
2018-11-01T02:04:39.032Z,100747.06
2018-11-01T02:07:08.032Z,100746.92
2018-11-01T02:09:39.382Z,100737.69
2018-11-01T02:12:08.529Z,100738.86
2018-11-01T02:14:41.848Z,100742.31
2018-11-01T02:20:19.370Z,100736.34
2018-11-01T02:22:49.395Z,100728.16
2018-11-01T02:25:21.931Z,100733.21
2018-11-01T02:28:00.351Z,100722.73
2018-11-01T02:30:31.423Z,100715.31
2018-11-01T02:33:00.415Z,100713.55
2018-11-01T02:35:30.355Z,100712.31
2018-11-01T02:38:03.900Z,100727.36
2018-11-01T02:40:32.812Z,100738.20
2018-11-01T02:43:02.745Z,100729.28
2018-11-01T02:45:32.613Z,100731.44
2018-11-01T02:48:12.222Z,100737.27
2018-11-01T02:50:41.158Z,100730.22
2018-11-01T02:53:10.016Z,100721.70
2018-11-01T02:55:39.957Z,100731.81
2018-11-01T02:58:27.693Z,100738.22
2018-11-01T03:00:56.600Z,100728.78
2018-11-01T03:03:37.973Z,100725.37
2018-11-01T03:06:12.041Z,100726.41
2018-11-01T03:08:40.904Z,100735.28
2018-11-01T03:11:22.648Z,100721.20
2018-11-01T03:13:51.491Z,100720.23
2018-11-01T03:16:24.772Z,100729.26
2018-11-01T03:19:07.596Z,100732.22
2018-11-01T03:21:36.669Z,100733.13
2018-11-01T03:24:22.212Z,100731.33
2018-11-01T03:26:51.128Z,100726.74
2018-11-01T03:32:16.789Z,100725.38
2018-11-01T03:34:47.713Z,100714.83
2018-11-01T03:37:33.288Z,100705.25
2018-11-01T03:40:07.860Z,100703.38
2018-11-01T03:42:41.304Z,100694.55
2018-11-01T03:45:11.652Z,100686.94
2018-11-01T03:47:44.556Z,100682.75
2018-11-01T03:50:19.947Z,100678.64
2018-11-01T03:53:05.113Z,100677.23
2018-11-01T03:55:34.438Z,100682.58
2018-11-01T03:58:03.787Z,100677.43
2018-11-01T04:00:33.665Z,100677.83
2018-11-01T04:03:14.459Z,100674.34
2018-11-01T04:05:44.356Z,100681.59
2018-11-01T04:08:15.280Z,100685.25
2018-11-01T04:10:44.590Z,100674.33
2018-11-01T04:13:19.154Z,100661.94
2018-11-01T04:15:58.465Z,100650.87
2018-11-01T04:18:28.991Z,100648.27
2018-11-01T04:20:58.380Z,100636.59
2018-11-01T04:23:27.801Z,100633.01
2018-11-01T04:25:58.890Z,100636.02
2018-11-01T04:28:32.852Z,100637.58
2018-11-01T04:31:02.780Z,100637.53
2018-11-01T04:33:36.774Z,100637.53
2018-11-01T04:36:12.927Z,100654.67
2018-11-01T04:38:49.694Z,100660.66
2018-11-01T04:41:18.623Z,100668.22
2018-11-01T04:43:53.638Z,100663.64
2018-11-01T04:46:36.866Z,100665.47
2018-11-01T04:49:06.322Z,100671.06
2018-11-01T04:51:42.011Z,100662.94
2018-11-01T04:54:13.737Z,100666.22
2018-11-01T04:57:02.469Z,100673.98
2018-11-01T04:59:31.371Z,100679.56
2018-11-01T05:02:02.355Z,100670.02
2018-11-01T05:04:32.243Z,100661.42
2018-11-01T05:07:02.173Z,100660.48
2018-11-01T05:09:33.084Z,100646.31
2018-11-01T05:12:05.480Z,100642.50
2018-11-01T05:14:36.473Z,100634.15
2018-11-01T05:17:08.516Z,100634.15
2018-11-01T05:19:37.370Z,100631.68
2018-11-01T05:22:06.216Z,100623.23
2018-11-01T05:24:36.236Z,100615.45
2018-11-01T05:27:05.204Z,100615.54
2018-11-01T05:29:36.166Z,100610.62
2018-11-01T05:32:07.075Z,100619.52
2018-11-01T05:34:45.576Z,100622.25
2018-11-01T05:37:16.543Z,100623.28
2018-11-01T05:39:45.504Z,100629.45
2018-11-01T05:42:18.776Z,100633.97
2018-11-01T05:44:47.676Z,100637.01
2018-11-01T05:47:19.747Z,100642.23
2018-11-01T05:49:50.710Z,100645.86
2018-11-01T05:52:19.602Z,100656.95
2018-11-01T05:54:52.505Z,100650.11
2018-11-01T05:57:22.671Z,100653.59
2018-11-01T05:59:51.659Z,100648.64
2018-11-01T06:02:29.356Z,100654.17
2018-11-01T06:04:58.214Z,100650.91
2018-11-01T06:07:36.176Z,100647.66
2018-11-01T06:10:18.390Z,100648.81
2018-11-01T06:12:47.270Z,100640.36
2018-11-01T06:15:16.113Z,100643.27
2018-11-01T06:17:45.020Z,100650.52
2018-11-01T06:20:13.890Z,100652.20
2018-11-01T06:22:42.752Z,100645.78
2018-11-01T06:25:12.652Z,100645.81
2018-11-01T06:27:41.538Z,100636.55
2018-11-01T06:30:13.056Z,100631.82
2018-11-01T06:32:42.118Z,100635.52
2018-11-01T06:35:30.517Z,100638.39
2018-11-01T06:38:21.739Z,100642.91
2018-11-01T06:40:57.908Z,100652.74
2018-11-01T06:43:36.956Z,100662.80
2018-11-01T06:46:11.363Z,100674.86
2018-11-01T06:48:40.325Z,100686.77
2018-11-01T06:51:32.182Z,100686.23
2018-11-01T06:54:01.056Z,100693.48
2018-11-01T06:56:37.351Z,100700.18
2018-11-01T06:59:08.539Z,100697.33
2018-11-01T07:01:37.376Z,100703.92
2018-11-01T07:04:06.383Z,100710.75
2018-11-01T07:06:35.949Z,100720.62
2018-11-01T07:09:15.946Z,100723.09
2018-11-01T07:11:55.087Z,100721.11
2018-11-01T07:14:23.962Z,100713.56
2018-11-01T07:17:01.182Z,100706.55
2018-11-01T07:19:37.290Z,100700.88
2018-11-01T07:22:09.620Z,100711.67
2018-11-01T07:24:53.383Z,100710.64
2018-11-01T07:27:32.788Z,100710.20
2018-11-01T07:30:01.683Z,100707.58
2018-11-01T07:32:30.569Z,100704.77
2018-11-01T07:34:59.402Z,100698.59
2018-11-01T07:37:35.920Z,100692.59
2018-11-01T07:40:13.774Z,100695.86
2018-11-01T07:42:52.657Z,100683.91
2018-11-01T07:45:26.294Z,100690.80
2018-11-01T07:47:58.496Z,100680.69
2018-11-01T07:50:31.476Z,100689.30
2018-11-01T07:53:05.924Z,100676.04
2018-11-01T07:55:35.892Z,100669.34
2018-11-01T07:58:17.146Z,100658.98
2018-11-01T08:00:50.611Z,100660.83
2018-11-01T08:03:26.988Z,100654.20
2018-11-01T08:05:56.043Z,100660.89
2018-11-01T08:08:26.931Z,100652.12
2018-11-01T08:10:57.841Z,100642.80
2018-11-01T08:13:30.504Z,100643.44
2018-11-01T08:16:03.394Z,100642.49
2018-11-01T08:18:36.146Z,100645.89
2018-11-01T08:21:11.581Z,100637.96
2018-11-01T08:23:40.509Z,100649.02
2018-11-01T08:26:09.805Z,100635.00
2018-11-01T08:28:39.806Z,100629.17
2018-11-01T08:31:09.963Z,100626.24
2018-11-01T08:33:39.212Z,100621.48
2018-11-01T08:36:11.865Z,100619.66
2018-11-01T08:38:42.767Z,100627.77
2018-11-01T08:41:23.201Z,100627.60
2018-11-01T08:44:04.912Z,100629.69
2018-11-01T08:46:33.830Z,100617.91
2018-11-01T08:49:02.770Z,100619.14
2018-11-01T08:51:32.757Z,100613.77
2018-11-01T08:54:01.698Z,100617.04
2018-11-01T08:56:41.788Z,100612.19
2018-11-01T08:59:10.798Z,100616.46
2018-11-01T09:01:47.580Z,100616.14
2018-11-01T09:04:24.297Z,100610.37
2018-11-01T09:06:54.262Z,100613.58
2018-11-01T09:09:25.157Z,100607.30
2018-11-01T09:11:55.229Z,100611.68
2018-11-01T09:14:24.195Z,100606.67
2018-11-01T09:16:58.849Z,100604.55
2018-11-01T09:19:35.062Z,100608.12
2018-11-01T09:22:15.184Z,100609.30
2018-11-01T09:24:45.202Z,100609.73
2018-11-01T09:27:16.388Z,100611.21
2018-11-01T09:29:47.311Z,100605.03
2018-11-01T09:32:20.437Z,100606.37
2018-11-01T09:34:51.331Z,100615.79
2018-11-01T09:37:21.274Z,100629.03
2018-11-01T09:39:52.219Z,100630.37
2018-11-01T09:42:22.269Z,100626.05
2018-11-01T09:44:58.279Z,100622.00
2018-11-01T09:47:31.266Z,100619.84
2018-11-01T09:50:12.354Z,100615.20
2018-11-01T09:52:41.613Z,100617.95
2018-11-01T09:55:10.528Z,100634.60
2018-11-01T09:57:44.888Z,100644.48
2018-11-01T10:00:31.532Z,100659.60
2018-11-01T10:03:02.510Z,100644.40
2018-11-01T10:05:32.505Z,100624.94
2018-11-01T10:08:04.789Z,100622.31
2018-11-01T10:10:34.760Z,100620.03
2018-11-01T10:13:09.194Z,100608.83
2018-11-01T10:15:38.672Z,100618.80
2018-11-01T10:18:08.942Z,100595.43
2018-11-01T10:20:42.498Z,100619.73
2018-11-01T10:23:18.939Z,100600.45
2018-11-01T10:25:49.013Z,100610.89
2018-11-01T10:28:17.958Z,100622.67
2018-11-01T10:30:59.076Z,100621.98
2018-11-01T10:33:28.004Z,100604.33
2018-11-01T10:35:57.876Z,100623.03
2018-11-01T10:38:33.517Z,100621.31
2018-11-01T10:41:08.406Z,100600.33
2018-11-01T10:43:50.059Z,100602.10
2018-11-01T10:46:20.044Z,100604.44
2018-11-01T10:48:49.053Z,100606.33
2018-11-01T10:51:19.085Z,100612.53
2018-11-01T10:53:48.140Z,100611.99
2018-11-01T10:56:18.968Z,100607.63
2018-11-01T10:58:59.045Z,100604.92
2018-11-01T11:01:41.856Z,100607.95
2018-11-01T11:04:11.045Z,100605.31
2018-11-01T11:06:42.048Z,100593.64
2018-11-01T11:09:15.102Z,100588.70
2018-11-01T11:11:44.457Z,100591.76
2018-11-01T11:14:13.518Z,100598.17
2018-11-01T11:16:47.044Z,100594.67
2018-11-01T11:19:20.096Z,100587.71
2018-11-01T11:21:49.012Z,100585.66
2018-11-01T11:24:18.886Z,100580.50
2018-11-01T11:26:47.828Z,100573.84
2018-11-01T11:29:16.800Z,100569.44
2018-11-01T11:31:51.233Z,100576.30
2018-11-01T11:34:20.131Z,100566.91
2018-11-01T11:36:55.657Z,100575.05
2018-11-01T11:39:24.570Z,100573.52
2018-11-01T11:41:54.437Z,100557.79
2018-11-01T11:44:25.400Z,100558.22
2018-11-01T11:46:55.312Z,100550.45
2018-11-01T11:49:37.533Z,100551.05
2018-11-01T11:52:10.490Z,100555.53
2018-11-01T11:54:45.520Z,100548.70
2018-11-01T11:57:14.437Z,100543.59
2018-11-01T11:59:43.312Z,100541.93
2018-11-01T12:02:16.248Z,100546.22
2018-11-01T12:04:45.112Z,100555.36
2018-11-01T12:07:26.514Z,100555.02
2018-11-01T12:09:57.471Z,100557.60
2018-11-01T12:12:38.384Z,100553.96
2018-11-01T12:15:07.520Z,100567.66
2018-11-01T12:17:36.988Z,100566.31
2018-11-01T12:20:11.923Z,100575.20
2018-11-01T12:22:44.412Z,100576.20
2018-11-01T12:25:18.208Z,100571.85
2018-11-01T12:27:57.678Z,100575.09
2018-11-01T12:30:26.562Z,100572.72
2018-11-01T12:32:55.563Z,100567.38
2018-11-01T12:35:34.937Z,100568.05
2018-11-01T12:38:04.762Z,100565.52
2018-11-01T12:40:41.815Z,100564.88
2018-11-01T12:43:10.682Z,100566.22
2018-11-01T12:45:39.556Z,100569.10
2018-11-01T12:48:19.118Z,100556.33
2018-11-01T12:50:52.895Z,100554.25
2018-11-01T12:53:27.418Z,100551.80
2018-11-01T12:56:00.019Z,100555.92
2018-11-01T12:58:30.936Z,100552.20
2018-11-01T13:01:00.078Z,100549.05
2018-11-01T13:03:29.244Z,100544.88
2018-11-01T13:06:02.480Z,100546.87
2018-11-01T13:08:31.377Z,100548.03
2018-11-01T13:11:04.105Z,100549.02
2018-11-01T13:13:32.988Z,100545.52
2018-11-01T13:16:01.856Z,100541.87
2018-11-01T13:18:38.776Z,100544.92
2018-11-01T13:21:08.676Z,100542.36
2018-11-01T13:23:37.670Z,100545.81
2018-11-01T13:26:12.335Z,100560.81
2018-11-01T13:28:52.954Z,100548.80
2018-11-01T13:31:21.842Z,100560.02
2018-11-01T13:33:52.834Z,100560.77
2018-11-01T13:36:40.908Z,100565.05
2018-11-01T13:39:09.816Z,100571.08
2018-11-01T13:41:38.792Z,100571.56
2018-11-01T13:44:13.319Z,100577.95
2018-11-01T13:46:50.823Z,100582.47
2018-11-01T13:49:20.211Z,100578.55
2018-11-01T13:51:49.576Z,100584.21
2018-11-01T13:54:21.206Z,100584.62
2018-11-01T13:56:55.644Z,100580.70
2018-11-01T13:59:44.845Z,100584.75
2018-11-01T14:02:21.603Z,100583.64
2018-11-01T14:04:50.599Z,100589.72
2018-11-01T14:07:19.566Z,100586.22
2018-11-01T14:09:48.437Z,100586.91
2018-11-01T14:12:17.320Z,100587.14
2018-11-01T14:14:48.589Z,100584.75
2018-11-01T14:17:18.184Z,100590.25
2018-11-01T14:19:54.540Z,100594.62
2018-11-01T14:22:34.649Z,100599.77
2018-11-01T14:25:03.610Z,100602.89
2018-11-01T14:27:32.596Z,100604.23
2018-11-01T14:30:01.547Z,100601.09
2018-11-01T14:32:34.576Z,100608.10
2018-11-01T14:35:11.004Z,100605.14
2018-11-01T14:37:47.533Z,100606.91
2018-11-01T14:40:16.475Z,100605.02
2018-11-01T14:42:46.385Z,100607.91
2018-11-01T14:45:15.313Z,100612.37
2018-11-01T14:47:49.616Z,100612.19
2018-11-01T14:50:23.733Z,100614.27
2018-11-01T14:55:55.009Z,100609.75
2018-11-01T14:58:24.372Z,100613.22
2018-11-01T15:00:51.806Z,100616.80
2018-11-01T15:03:27.100Z,100616.90
2018-11-01T15:05:57.095Z,100618.84
2018-11-01T15:08:29.704Z,100624.70
2018-11-01T15:11:17.106Z,100618.68
2018-11-01T15:13:48.088Z,100618.38
2018-11-01T15:16:18.996Z,100619.16
2018-11-01T15:18:52.327Z,100614.38
2018-11-01T15:21:22.368Z,100616.33
2018-11-01T15:23:51.284Z,100611.28
2018-11-01T15:26:22.371Z,100607.52
2018-11-01T15:28:54.572Z,100611.72
2018-11-01T15:31:26.858Z,100605.30
2018-11-01T15:34:06.301Z,100606.37
2018-11-01T15:36:38.836Z,100606.47
2018-11-01T15:39:14.189Z,100601.38
2018-11-01T15:41:54.011Z,100602.33
2018-11-01T15:44:24.330Z,100603.10
2018-11-01T15:46:54.235Z,100601.42
2018-11-01T15:49:43.687Z,100604.08
2018-11-01T15:52:18.235Z,100598.05
2018-11-01T15:55:04.742Z,100599.70
2018-11-01T15:57:34.967Z,100600.24
2018-11-01T16:00:10.092Z,100594.02
2018-11-01T16:02:44.059Z,100589.27
2018-11-01T16:05:14.031Z,100590.52
2018-11-01T16:07:47.802Z,100585.95
2018-11-01T16:10:16.811Z,100587.69
2018-11-01T16:12:46.728Z,100581.40
2018-11-01T16:15:18.712Z,100582.27
2018-11-01T16:17:49.627Z,100584.66
2018-11-01T16:20:19.749Z,100585.61
2018-11-01T16:23:04.569Z,100580.66
2018-11-01T16:25:43.365Z,100579.24
2018-11-01T16:28:13.431Z,100586.45
2018-11-01T16:30:54.600Z,100575.95
2018-11-01T16:33:23.590Z,100577.49
2018-11-01T16:35:57.971Z,100574.67
2018-11-01T16:38:34.464Z,100572.14
2018-11-01T16:41:08.130Z,100568.64
2018-11-01T16:43:39.010Z,100558.14
2018-11-01T16:46:13.040Z,100559.61
2018-11-01T16:48:48.342Z,100563.45
2018-11-01T16:51:17.360Z,100567.73
2018-11-01T16:53:47.404Z,100572.95
2018-11-01T16:56:17.710Z,100570.59
2018-11-01T16:58:46.629Z,100568.47
2018-11-01T17:01:16.584Z,100576.85
2018-11-01T17:03:51.557Z,100579.55
2018-11-01T17:06:21.520Z,100576.39
2018-11-01T17:08:54.994Z,100583.19
2018-11-01T17:11:24.226Z,100578.84
2018-11-01T17:13:56.954Z,100575.61
2018-11-01T17:16:36.769Z,100575.91
2018-11-01T17:19:08.501Z,100582.61
2018-11-01T17:21:37.974Z,100584.33
2018-11-01T17:24:09.101Z,100574.70
2018-11-01T17:26:38.026Z,100576.63
2018-11-01T17:29:09.035Z,100573.77
2018-11-01T17:31:38.011Z,100586.34
2018-11-01T17:34:13.137Z,100589.17
2018-11-01T17:36:43.012Z,100590.75
2018-11-01T17:39:11.966Z,100584.53
2018-11-01T17:41:46.881Z,100592.30
2018-11-01T17:44:15.830Z,100591.19
2018-11-01T17:46:50.579Z,100591.42
2018-11-01T17:49:21.016Z,100593.98
2018-11-01T17:51:53.464Z,100597.92
2018-11-01T17:54:24.982Z,100600.61
2018-11-01T17:56:59.979Z,100595.03
2018-11-01T17:59:29.536Z,100599.36
2018-11-01T18:02:13.397Z,100606.41
2018-11-01T18:04:44.166Z,100607.53
2018-11-01T18:07:14.011Z,100613.59
2018-11-01T18:09:43.495Z,100618.96
2018-11-01T18:12:20.773Z,100616.20
2018-11-01T18:14:55.422Z,100611.75
2018-11-01T18:17:24.857Z,100615.65
2018-11-01T18:20:17.427Z,100615.08
2018-11-01T18:22:48.892Z,100610.73
2018-11-01T18:25:18.349Z,100608.95
2018-11-01T18:27:49.699Z,100610.13
2018-11-01T18:30:18.874Z,100609.09
2018-11-01T18:32:48.637Z,100609.39
2018-11-01T18:35:21.106Z,100610.45
2018-11-01T18:37:52.885Z,100614.19
2018-11-01T18:40:26.441Z,100618.89
2018-11-01T18:42:56.642Z,100614.05
2018-11-01T18:45:27.045Z,100625.77
2018-11-01T18:48:07.831Z,100622.05
2018-11-01T18:50:42.800Z,100615.39
2018-11-01T18:53:17.310Z,100616.43
2018-11-01T18:55:54.766Z,100624.20
2018-11-01T18:58:24.192Z,100620.77
2018-11-01T19:01:00.679Z,100628.25
2018-11-01T19:03:33.479Z,100628.08
2018-11-01T19:06:06.885Z,100626.83
2018-11-01T19:08:35.970Z,100634.67
2018-11-01T19:11:05.461Z,100631.96
2018-11-01T19:13:45.462Z,100632.72
2018-11-01T19:16:15.306Z,100634.60
2018-11-01T19:18:47.826Z,100629.34
2018-11-01T19:21:16.804Z,100635.19
2018-11-01T19:23:46.759Z,100631.59
2018-11-01T19:26:20.709Z,100631.61
2018-11-01T19:28:53.160Z,100642.60
2018-11-01T19:31:22.092Z,100645.22
2018-11-01T19:33:52.091Z,100653.66
2018-11-01T19:36:22.981Z,100652.52
2018-11-01T19:38:53.901Z,100655.90
2018-11-01T19:41:22.921Z,100654.71
2018-11-01T19:43:56.065Z,100659.42
2018-11-01T19:46:24.979Z,100656.03
2018-11-01T19:49:00.762Z,100659.42
2018-11-01T19:51:49.443Z,100660.30
2018-11-01T19:54:21.475Z,100660.08
2018-11-01T19:56:51.364Z,100659.34
2018-11-01T19:59:26.218Z,100666.22
2018-11-01T20:01:56.251Z,100661.14
2018-11-01T20:04:29.836Z,100656.50
2018-11-01T20:07:04.757Z,100659.03
2018-11-01T20:09:33.743Z,100659.48
2018-11-01T20:12:02.722Z,100661.07
2018-11-01T20:14:31.751Z,100668.75
2018-11-01T20:17:00.692Z,100668.17
2018-11-01T20:19:38.143Z,100667.41
2018-11-01T20:22:08.038Z,100671.21
2018-11-01T20:24:37.307Z,100666.44
2018-11-01T20:27:18.107Z,100673.33
2018-11-01T20:29:49.018Z,100671.45
2018-11-01T20:32:26.294Z,100667.10
2018-11-01T20:34:56.236Z,100668.83
2018-11-01T20:37:25.264Z,100667.55
2018-11-01T20:39:59.185Z,100670.25
2018-11-01T20:42:28.145Z,100668.14
2018-11-01T20:44:59.084Z,100677.36
2018-11-01T20:47:32.736Z,100672.27
2018-11-01T20:50:10.604Z,100662.16
2018-11-01T20:52:46.978Z,100670.55
2018-11-01T20:55:19.725Z,100682.81
2018-11-01T20:57:50.700Z,100683.93
2018-11-01T21:00:20.608Z,100686.85
2018-11-01T21:02:50.561Z,100697.47
2018-11-01T21:05:30.183Z,100685.86
2018-11-01T21:07:59.124Z,100679.44
2018-11-01T21:10:28.007Z,100684.31
2018-11-01T21:12:57.019Z,100681.08
2018-11-01T21:15:30.331Z,100676.16
2018-11-01T21:18:23.527Z,100678.17
2018-11-01T21:20:54.570Z,100682.74
2018-11-01T21:23:41.787Z,100688.20
2018-11-01T21:26:10.782Z,100694.62
2018-11-01T21:28:40.723Z,100697.00
2018-11-01T21:31:12.785Z,100693.50
2018-11-01T21:33:49.707Z,100694.23
2018-11-01T21:36:38.508Z,100693.34
2018-11-01T21:39:13.189Z,100691.04
2018-11-01T21:41:42.175Z,100689.39
2018-11-01T21:44:14.385Z,100693.06
2018-11-01T21:46:45.382Z,100689.61
2018-11-01T21:49:14.483Z,100692.96
2018-11-01T21:51:48.909Z,100694.31
2018-11-01T21:54:17.876Z,100692.23
2018-11-01T21:56:46.909Z,100697.14
2018-11-01T21:59:16.220Z,100698.34
2018-11-01T22:01:46.650Z,100707.17
2018-11-01T22:04:17.058Z,100709.41
2018-11-01T22:06:51.007Z,100706.37
2018-11-01T22:09:20.299Z,100711.52
2018-11-01T22:11:50.185Z,100716.83
2018-11-01T22:14:22.465Z,100724.21
2018-11-01T22:16:57.910Z,100727.65
2018-11-01T22:19:27.596Z,100730.64
2018-11-01T22:22:10.868Z,100736.03
2018-11-01T22:24:39.772Z,100734.02
2018-11-01T22:27:13.450Z,100739.17
2018-11-01T22:29:49.985Z,100743.13
2018-11-01T22:32:31.812Z,100747.54
2018-11-01T22:35:17.327Z,100747.16
2018-11-01T22:37:49.884Z,100747.14
2018-11-01T22:40:30.893Z,100744.08
2018-11-01T22:43:07.753Z,100754.94
2018-11-01T22:45:36.664Z,100757.92
2018-11-01T22:48:12.805Z,100760.83
2018-11-01T22:51:00.839Z,100761.12
2018-11-01T22:53:35.526Z,100762.25
2018-11-01T22:56:06.042Z,100766.98
2018-11-01T22:58:34.983Z,100763.22
2018-11-01T23:01:14.336Z,100768.91
2018-11-01T23:03:43.281Z,100767.00
2018-11-01T23:06:12.407Z,100768.34
2018-11-01T23:08:45.301Z,100770.72
2018-11-01T23:14:20.343Z,100769.00
2018-11-01T23:16:54.873Z,100771.08
2018-11-01T23:19:36.654Z,100774.92
2018-11-01T23:22:05.792Z,100777.30
2018-11-01T23:24:34.745Z,100774.44
2018-11-01T23:30:09.418Z,100772.20
2018-11-01T23:32:54.986Z,100775.87
2018-11-01T23:38:26.165Z,100777.23
2018-11-01T23:41:07.737Z,100781.42
2018-11-01T23:43:42.948Z,100789.42
2018-11-01T23:46:31.386Z,100797.34
2018-11-01T23:50:09.212Z,100796.47
2018-11-01T23:52:44.077Z,100801.70
2018-11-01T23:55:16.165Z,100809.04
2018-11-01T23:57:47.256Z,100806.25
